Terminal Aerodrome Forecast
Issued by NWS Grand Forks, ND

Home | Current Version | Previous Version | Text Only | Print | Product List | Glossary Off
Versions: 1 2 3 4 5 6 7 8 9 10 11 12 13 14 15 16 17 18 19 20

000
FTUS43 KFGF 071604 AAA
TAFFAR
TAF AMD
KFAR 071604Z 0716/0812 29024G32KT 3SM BLSN BKN020 OVC035
      TEMPO 0716/0720 29025G35KT 1SM -SN BLSN OVC015
     FM072000 31024G33KT 1 1/2SM -SN BLSN OVC025
     FM080100 31021G30KT 3SM BLSN OVC015
     FM080500 31018KT P6SM OVC020=

USA.gov is the U.S. government's official web portal to all federal, state and local government web resources and services.